Butler, GA

10:04 PM EST on December 15, 2019 (GMT -0500)
Butler

Weather History for K6A1 - October, 2019

Change the Weather History Date:

Wednesday, October 9, 2019

  Actual Average (KMCN) Record (KMCN)
Temperature  
Mean Temperature 72 °F -  
Max Temperature 79 °F 79 °F 92 °F (1982)
Min Temperature 64 °F 55 °F 35 °F (1987)
Cooling Degree Days 6    
Growing Degree Days 22 (Base 50)    
Moisture  
Dew Point 61 °F    
Average Humidity 70    
Maximum Humidity 83    
Minimum Humidity 49    
Precipitation  
Precipitation 0.00 in - - ()
Sea Level Pressure  
Sea Level Pressure 30.09 in    
Wind  
Wind Speed 6 mph ()    
Max Wind Speed 13 mph    
Max Gust Speed 16 mph    
Visibility 10.0 miles    
Events      
Averages and records for this station are not official NWS values.
T = Trace of Precipitation, MM = Missing Value Source: Averaged Metar Reports

Daily Weather History Graph

Daily Weather History Graph

Search for Another Location

Airport or City:

Astronomy

Oct. 09, 2019 Rise Set
Actual Time 7:36 AM EDT 7:11 PM EDT
Civil Twilight 7:11 AM EDT 7:36 PM EDT
Nautical Twilight 6:43 AM EDT 8:04 PM EDT
Astronomical Twilight 6:14 AM EDT 8:33 PM EDT
Moon 5:26 PM EDT (10/9) 3:41 AM EDT (10/9)
Length of Visible Light 12h 24m
Length of Day
11h 35m
Waxing Gibbous, 85% of the Moon is Illuminated
Oct 9
Waxing Gibbous
Oct 13
Full
Oct 21
Last Quarter
Oct 27
New
Nov 4
First Quarter

Hourly Weather History & Observations

Time (EDT) Temp. Dew Point Humidity Pressure Visibility Wind Dir Wind Speed Gust Speed Precip Events Conditions
12:15 AM 72.9 °F 63.5 °F 72% 30.04 in 10.0 mi ENE 3.5 mph - N/A   Unknown
12:35 AM 72.0 °F 63.5 °F 75% 30.04 in 10.0 mi ENE 4.6 mph - N/A   Unknown
12:55 AM 71.6 °F 63.5 °F 76% 30.04 in 10.0 mi ENE 4.6 mph - N/A   Unknown
1:15 AM 71.2 °F 63.7 °F 77% 30.04 in 10.0 mi ENE 3.5 mph - N/A   Unknown
1:35 AM 71.2 °F 63.9 °F 77% 30.04 in 10.0 mi NE 4.6 mph - N/A   Unknown
1:55 AM 71.6 °F 64.0 °F 77% 30.04 in 10.0 mi ENE 6.9 mph - N/A   Unknown
2:15 AM 70.7 °F 64.2 °F 80% 30.04 in 10.0 mi ENE 5.8 mph - N/A   Unknown
2:35 AM 70.7 °F 64.4 °F 80% 30.04 in 10.0 mi ENE 6.9 mph - N/A   Unknown
2:55 AM 70.2 °F 64.4 °F 82% 30.04 in 10.0 mi ENE 6.9 mph - N/A   Unknown
3:15 AM 69.8 °F 64.4 °F 83% 30.04 in 10.0 mi ENE 4.6 mph - N/A   Unknown
3:35 AM 69.8 °F 64.0 °F 82% 30.04 in 10.0 mi East 6.9 mph - N/A   Unknown
3:55 AM 70.0 °F 64.0 °F 81% 30.04 in 10.0 mi East 5.8 mph - N/A   Unknown
4:15 AM 70.2 °F 64.0 °F 81% 30.04 in 10.0 mi ENE 6.9 mph - N/A   Unknown
4:35 AM 70.2 °F 63.7 °F 80% 30.04 in 10.0 mi ENE 5.8 mph - N/A   Unknown
4:55 AM 70.2 °F 63.5 °F 79% 30.05 in 10.0 mi East 5.8 mph - N/A   Unknown
5:15 AM 70.0 °F 63.5 °F 80% 30.06 in 10.0 mi East 10.4 mph - N/A   Unknown
5:35 AM 70.0 °F 63.3 °F 79% 30.07 in 10.0 mi East 9.2 mph - N/A   Unknown
5:55 AM 69.8 °F 63.1 °F 79% 30.07 in 10.0 mi East 10.4 mph - N/A   Unknown
6:15 AM 69.8 °F 63.1 °F 79% 30.07 in 10.0 mi East 9.2 mph - N/A   Unknown
6:35 AM 69.3 °F 62.8 °F 80% 30.08 in 10.0 mi East 10.4 mph - N/A   Unknown
6:55 AM 68.9 °F 62.6 °F 80% 30.08 in 10.0 mi East 10.4 mph 16.1 mph N/A   Unknown
7:15 AM 68.9 °F 62.2 °F 79% 30.09 in 10.0 mi ENE 11.5 mph - N/A   Unknown
7:35 AM 68.2 °F 61.7 °F 80% 30.10 in 10.0 mi ENE 5.8 mph - N/A   Unknown
7:55 AM 68.2 °F 61.7 °F 80% 30.10 in 10.0 mi ENE 9.2 mph - N/A   Unknown
8:15 AM 68.2 °F 61.3 °F 79% 30.11 in 10.0 mi ENE 6.9 mph - N/A   Unknown
8:35 AM 68.0 °F 61.0 °F 78% 30.11 in 10.0 mi ENE 9.2 mph - N/A   Unknown
8:55 AM 68.0 °F 60.4 °F 77% 30.12 in 10.0 mi East 11.5 mph 16.1 mph N/A   Unknown
9:15 AM 68.0 °F 60.3 °F 76% 30.13 in 10.0 mi ENE 10.4 mph - N/A   Unknown
9:35 AM 68.0 °F 60.3 °F 76% 30.13 in 10.0 mi East 9.2 mph - N/A   Unknown
9:55 AM 68.7 °F 60.3 °F 74% 30.14 in 10.0 mi East 9.2 mph - N/A   Unknown
10:15 AM 68.9 °F 59.9 °F 73% 30.15 in 10.0 mi East 9.2 mph - N/A   Unknown
10:35 AM 69.8 °F 59.9 °F 71% 30.15 in 10.0 mi ENE 10.4 mph - N/A   Unknown
10:55 AM 69.8 °F 59.9 °F 71% 30.16 in 10.0 mi ENE 6.9 mph - N/A   Unknown
11:15 AM 71.1 °F 59.9 °F 68% 30.15 in 10.0 mi ENE 11.5 mph 16.1 mph N/A   Unknown
11:35 AM 72.1 °F 59.9 °F 65% 30.16 in 10.0 mi East 9.2 mph - N/A   Unknown
11:55 AM 72.9 °F 59.9 °F 64% 30.16 in 10.0 mi ENE 9.2 mph - N/A   Unknown
12:15 PM 73.2 °F 59.9 °F 63% 30.15 in 10.0 mi NE 12.7 mph - N/A   Unknown
12:55 PM 74.8 °F 60.1 °F 60% 30.15 in 10.0 mi NE 10.4 mph - N/A   Unknown
1:15 PM 75.0 °F 59.9 °F 59% 30.14 in 10.0 mi NE 9.2 mph - N/A   Unknown
1:35 PM 75.7 °F 59.9 °F 58% 30.13 in 10.0 mi NE 6.9 mph - N/A   Unknown
1:55 PM 76.1 °F 59.9 °F 57% 30.12 in 10.0 mi East 9.2 mph - N/A   Unknown
2:15 PM 76.6 °F 59.9 °F 56% 30.12 in 10.0 mi East 10.4 mph - N/A   Unknown
2:35 PM 78.1 °F 59.9 °F 53% 30.11 in 10.0 mi East 8.1 mph - N/A   Unknown
2:55 PM 77.2 °F 59.9 °F 55% 30.10 in 10.0 mi NE 10.4 mph - N/A   Unknown
3:15 PM 77.9 °F 59.9 °F 54% 30.10 in 10.0 mi ENE 6.9 mph 16.1 mph N/A   Unknown
3:35 PM 77.9 °F 59.9 °F 54% 30.10 in 10.0 mi ENE 8.1 mph - N/A   Unknown
3:55 PM 79.0 °F 59.9 °F 52% 30.09 in 10.0 mi East 6.9 mph - N/A   Unknown
4:15 PM 78.6 °F 59.9 °F 52% 30.08 in 10.0 mi ENE 9.2 mph - N/A   Unknown
4:35 PM 79.7 °F 59.5 °F 50% 30.07 in 10.0 mi East 8.1 mph - N/A   Unknown
4:55 PM 79.5 °F 59.4 °F 50% 30.07 in 10.0 mi ENE 8.1 mph - N/A   Unknown
5:15 PM 79.5 °F 59.2 °F 50% 30.07 in 10.0 mi NE 6.9 mph - N/A   Unknown
5:35 PM 79.7 °F 59.2 °F 49% 30.07 in 10.0 mi East 4.6 mph - N/A   Unknown
6:15 PM 78.8 °F 59.0 °F 51% 30.06 in 10.0 mi East 6.9 mph - N/A   Unknown
6:35 PM 77.9 °F 59.0 °F 52% 30.07 in 10.0 mi ESE 8.1 mph - N/A   Unknown
6:55 PM 76.3 °F 59.0 °F 55% 30.07 in 10.0 mi East 6.9 mph - N/A   Unknown
7:15 PM 74.8 °F 59.0 °F 58% 30.07 in 10.0 mi East 4.6 mph - N/A   Unknown
7:35 PM 73.8 °F 59.0 °F 60% 30.07 in 10.0 mi East 3.5 mph - N/A   Unknown
7:55 PM 72.7 °F 59.2 °F 62% 30.08 in 10.0 mi East 4.6 mph - N/A   Unknown
8:15 PM 71.8 °F 59.4 °F 65% 30.09 in 10.0 mi ENE 3.5 mph - N/A   Unknown
8:35 PM 70.9 °F 59.5 °F 67% 30.10 in 10.0 mi East 3.5 mph - N/A   Unknown
8:55 PM 70.0 °F 59.5 °F 69% 30.10 in 10.0 mi ENE 4.6 mph - N/A   Unknown
9:15 PM 69.3 °F 59.5 °F 71% 30.10 in 10.0 mi ENE 4.6 mph - N/A   Unknown
9:35 PM 68.9 °F 59.5 °F 72% 30.11 in 10.0 mi Calm Calm - N/A   Unknown
9:55 PM 66.0 °F 59.0 °F 78% 30.12 in 10.0 mi Calm Calm - N/A   Unknown
10:15 PM 67.1 °F 59.2 °F 76% 30.12 in 10.0 mi Calm Calm - N/A   Unknown
10:35 PM 66.0 °F 59.4 °F 79% 30.12 in 10.0 mi Calm Calm - N/A   Unknown
10:55 PM 66.6 °F 58.8 °F 76% 30.13 in 10.0 mi Calm Calm - N/A   Unknown
11:15 PM 64.6 °F 58.6 °F 81% 30.12 in 10.0 mi Calm Calm - N/A   Unknown
11:35 PM 65.3 °F 59.0 °F 80% 30.13 in 10.0 mi Calm Calm - N/A   Unknown
11:55 PM 64.2 °F 59.0 °F 83% 30.13 in 10.0 mi Calm Calm - N/A   Unknown